Time;durP1;ratioP1;P1;durP2;ratioP2;P2;SDS_P1;SDS_P2;PMS_P1;PMS_P2;Temp;Humidity;BMP_temperature;BMP_pressure;BME280_temperature;BME280_humidity;BME280_pressure;Samples;Min_cycle;Max_cycle;Signal;HPM_P1;HPM_P2
2023/01/19 00:01:37;;;;;;;10.02;2.92;;;;;;;;;;6143458;23;20422;-42
2023/01/19 00:04:05;;;;;;;12.17;3.33;;;;;;;;;;6155077;23;20361;-41
2023/01/19 00:06:34;;;;;;;8.75;2.92;;;;;;;;;;6150031;23;20013;-41
2023/01/19 00:09:02;;;;;;;10.18;2.92;;;;;;;;;;6152992;23;20025;-42
2023/01/19 00:11:30;;;;;;;12.65;2.92;;;;;;;;;;6156180;23;20639;-42
2023/01/19 00:13:58;;;;;;;11.65;3.92;;;;;;;;;;6151767;23;20017;-43
2023/01/19 00:16:25;;;;;;;10.17;3.67;;;;;;;;;;6154620;23;20028;-41
2023/01/19 00:18:54;;;;;;;11.38;3.05;;;;;;;;;;6153286;23;20035;-42
2023/01/19 00:21:22;;;;;;;9.35;3.83;;;;;;;;;;6144413;23;20013;-42
2023/01/19 00:23:51;;;;;;;11.73;3.50;;;;;;;;;;6159963;23;20026;-41
2023/01/19 00:26:20;;;;;;;12.52;4.38;;;;;;;;;;6148079;23;20024;-42
2023/01/19 00:28:56;;;;;;;11.07;3.67;;;;;;;;;;6148289;23;20068;-44
2023/01/19 00:31:24;;;;;;;13.43;3.78;;;;;;;;;;6165082;23;20013;-41
2023/01/19 00:33:51;;;;;;;12.80;4.05;;;;;;;;;;6147735;23;20021;-42
2023/01/19 00:36:19;;;;;;;12.80;4.35;;;;;;;;;;6152859;23;20035;-44
2023/01/19 00:38:47;;;;;;;12.68;4.20;;;;;;;;;;6152036;23;20393;-41
2023/01/19 00:41:16;;;;;;;13.00;4.43;;;;;;;;;;6157755;23;20071;-41
2023/01/19 00:43:43;;;;;;;13.80;4.53;;;;;;;;;;6150766;23;20103;-41
2023/01/19 00:46:10;;;;;;;13.90;4.55;;;;;;;;;;6157659;23;20017;-42
2023/01/19 00:48:38;;;;;;;13.20;3.90;;;;;;;;;;6154583;23;20480;-42
2023/01/19 00:51:06;;;;;;;13.60;4.50;;;;;;;;;;6156742;23;20103;-40
2023/01/19 00:53:33;;;;;;;13.57;3.97;;;;;;;;;;6151752;23;20013;-43
2023/01/19 00:56:01;;;;;;;13.38;4.05;;;;;;;;;;6159327;23;20067;-44
2023/01/19 00:58:30;;;;;;;9.30;3.35;;;;;;;;;;6145973;23;20017;-41
2023/01/19 01:01:02;;;;;;;12.15;3.90;;;;;;;;;;6158530;23;20013;-42
2023/01/19 01:03:30;;;;;;;11.52;3.85;;;;;;;;;;6149114;23;20025;-44
2023/01/19 01:05:58;;;;;;;10.83;3.33;;;;;;;;;;6158183;23;20013;-41
2023/01/19 01:08:25;;;;;;;14.57;3.28;;;;;;;;;;6153792;23;20021;-41
2023/01/19 01:10:54;;;;;;;10.75;3.05;;;;;;;;;;6151233;23;20519;-43
2023/01/19 01:13:22;;;;;;;10.55;3.00;;;;;;;;;;6156050;23;20104;-42
2023/01/19 01:15:56;;;;;;;13.73;3.35;;;;;;;;;;6146583;23;20072;-42
2023/01/19 01:18:24;;;;;;;10.43;3.10;;;;;;;;;;6156620;23;20017;-42
2023/01/19 01:20:53;;;;;;;12.65;3.00;;;;;;;;;;6148922;23;20021;-43
2023/01/19 01:23:22;;;;;;;13.43;3.50;;;;;;;;;;6159222;23;20032;-44
2023/01/19 01:25:50;;;;;;;10.93;3.53;;;;;;;;;;6144413;23;20124;-41
2023/01/19 01:28:18;;;;;;;11.95;3.05;;;;;;;;;;6160581;23;20208;-42
2023/01/19 01:30:46;;;;;;;11.43;3.97;;;;;;;;;;6146315;23;20022;-42
2023/01/19 01:33:15;;;;;;;9.75;3.70;;;;;;;;;;6154415;23;20483;-42
2023/01/19 01:36:03;;;;;;;9.95;3.63;;;;;;;;;;6144136;23;20032;-43
2023/01/19 01:38:31;;;;;;;13.15;3.90;;;;;;;;;;6155461;23;20377;-43
2023/01/19 01:40:58;;;;;;;9.65;3.75;;;;;;;;;;6144705;23;20084;-42
2023/01/19 01:43:42;;;;;;;11.80;3.30;;;;;;;;;;6158141;23;20075;-43
2023/01/19 01:46:14;;;;;;;10.23;3.90;;;;;;;;;;6153275;23;20043;-43
2023/01/19 01:48:44;;;;;;;11.25;3.90;;;;;;;;;;6147206;23;20250;-47
2023/01/19 01:51:24;;;;;;;12.43;3.78;;;;;;;;;;6159243;23;20060;-41
2023/01/19 01:53:55;;;;;;;10.30;3.40;;;;;;;;;;6142454;23;20021;-42
2023/01/19 01:56:27;;;;;;;10.07;3.37;;;;;;;;;;6159447;23;20048;-41
2023/01/19 01:58:56;;;;;;;13.60;3.60;;;;;;;;;;6156821;23;20021;-43
2023/01/19 02:04:10;;;;;;;9.35;3.13;;;;;;;;;;6156995;23;20028;-44
2023/01/19 02:14:55;;;;;;;12.05;3.08;;;;;;;;;;6150723;23;20059;-42
2023/01/19 02:17:23;;;;;;;8.57;3.30;;;;;;;;;;6153668;23;20049;-41
2023/01/19 02:19:52;;;;;;;11.23;3.40;;;;;;;;;;6151925;23;20415;-45
2023/01/19 02:22:26;;;;;;;8.43;3.20;;;;;;;;;;6158916;23;20021;-41
2023/01/19 02:24:57;;;;;;;10.73;3.40;;;;;;;;;;6136518;23;20028;-42
2023/01/19 02:27:25;;;;;;;11.48;3.63;;;;;;;;;;6145855;23;20478;-43
2023/01/19 02:29:53;;;;;;;7.63;3.00;;;;;;;;;;6155722;23;20088;-41
2023/01/19 02:32:20;;;;;;;11.77;3.90;;;;;;;;;;6152572;23;20380;-42
2023/01/19 02:34:48;;;;;;;10.87;3.47;;;;;;;;;;6158739;23;20013;-42
2023/01/19 02:37:17;;;;;;;12.80;4.32;;;;;;;;;;6147535;23;20017;-45
2023/01/19 02:39:49;;;;;;;8.55;3.20;;;;;;;;;;6153372;23;20024;-43
2023/01/19 02:42:19;;;;;;;11.90;3.60;;;;;;;;;;6138397;23;20520;-41
2023/01/19 02:44:48;;;;;;;10.75;3.88;;;;;;;;;;6159440;23;20455;-42
2023/01/19 02:47:16;;;;;;;11.33;3.80;;;;;;;;;;6125286;23;20115;-42
2023/01/19 02:49:44;;;;;;;11.73;4.10;;;;;;;;;;6152302;23;20037;-42
2023/01/19 02:52:14;;;;;;;8.27;3.78;;;;;;;;;;6180698;23;20079;-43
2023/01/19 02:54:48;;;;;;;11.15;3.75;;;;;;;;;;6153669;23;20017;-42
2023/01/19 02:57:27;;;;;;;10.00;3.63;;;;;;;;;;6154985;23;20017;-42
2023/01/19 03:00:06;;;;;;;16.87;4.13;;;;;;;;;;6174102;23;20447;-41
2023/01/19 03:02:38;;;;;;;12.93;3.75;;;;;;;;;;6149580;23;20450;-42
2023/01/19 03:05:13;;;;;;;12.18;3.70;;;;;;;;;;6149794;23;20021;-45
2023/01/19 03:07:46;;;;;;;10.77;3.53;;;;;;;;;;6161188;23;20043;-42
2023/01/19 03:10:17;;;;;;;10.63;3.70;;;;;;;;;;6149540;23;20027;-42
2023/01/19 03:12:48;;;;;;;10.13;3.20;;;;;;;;;;6156570;23;20013;-41
2023/01/19 03:15:21;;;;;;;11.95;3.40;;;;;;;;;;6158752;23;20024;-42
2023/01/19 03:17:50;;;;;;;13.70;3.95;;;;;;;;;;6148524;23;20658;-43
2023/01/19 03:20:20;;;;;;;10.35;3.05;;;;;;;;;;6157267;23;20043;-41
2023/01/19 03:22:49;;;;;;;8.98;3.20;;;;;;;;;;6157503;23;20017;-42
2023/01/19 03:25:18;;;;;;;11.03;2.80;;;;;;;;;;6148510;23;20013;-41
2023/01/19 03:27:48;;;;;;;9.18;3.30;;;;;;;;;;6157119;23;20086;-43
2023/01/19 03:30:18;;;;;;;14.00;3.20;;;;;;;;;;6149508;23;20681;-42
2023/01/19 03:32:49;;;;;;;10.88;3.47;;;;;;;;;;6159112;23;20040;-43
2023/01/19 03:35:19;;;;;;;8.63;2.83;;;;;;;;;;6150391;23;20021;-41
2023/01/19 03:37:48;;;;;;;13.10;2.73;;;;;;;;;;6163140;23;20021;-43
2023/01/19 03:40:16;;;;;;;11.45;3.20;;;;;;;;;;6145147;23;20060;-44
2023/01/19 03:42:52;;;;;;;9.93;2.60;;;;;;;;;;6154065;23;20068;-42
2023/01/19 03:45:23;;;;;;;8.77;2.85;;;;;;;;;;6147654;23;20091;-43
2023/01/19 03:47:51;;;;;;;9.75;2.90;;;;;;;;;;6137644;23;20024;-43
2023/01/19 03:50:23;;;;;;;12.23;2.63;;;;;;;;;;6155010;23;20513;-43
2023/01/19 03:52:59;;;;;;;9.77;2.80;;;;;;;;;;6155045;23;20075;-41
2023/01/19 03:55:28;;;;;;;10.30;3.13;;;;;;;;;;6162186;23;20025;-41
2023/01/19 03:57:58;;;;;;;8.07;2.60;;;;;;;;;;6156481;23;20048;-42
2023/01/19 04:00:27;;;;;;;9.00;3.13;;;;;;;;;;6158569;23;20087;-41
2023/01/19 04:02:55;;;;;;;8.27;2.83;;;;;;;;;;6159673;23;20404;-42
2023/01/19 04:05:29;;;;;;;9.52;2.78;;;;;;;;;;6155164;23;20096;-41
2023/01/19 04:07:57;;;;;;;11.57;2.58;;;;;;;;;;6151572;23;20353;-41
2023/01/19 04:10:24;;;;;;;7.50;2.63;;;;;;;;;;6154615;23;20036;-43
2023/01/19 04:12:59;;;;;;;12.15;3.33;;;;;;;;;;6151048;23;20064;-41
2023/01/19 04:15:29;;;;;;;13.37;3.43;;;;;;;;;;6158102;23;20076;-42
2023/01/19 04:17:57;;;;;;;11.77;3.67;;;;;;;;;;6157061;23;20025;-44
2023/01/19 04:20:25;;;;;;;10.32;2.85;;;;;;;;;;6152671;23;20021;-42
2023/01/19 04:22:53;;;;;;;8.50;2.55;;;;;;;;;;6136263;23;20474;-43
2023/01/19 04:25:21;;;;;;;9.30;2.70;;;;;;;;;;6155091;23;20489;-42
2023/01/19 04:27:51;;;;;;;10.10;2.50;;;;;;;;;;6157687;23;20379;-42
2023/01/19 04:30:23;;;;;;;8.07;2.63;;;;;;;;;;6146592;23;20048;-42
2023/01/19 04:32:52;;;;;;;14.20;3.60;;;;;;;;;;6158414;23;20330;-42
2023/01/19 04:35:20;;;;;;;12.43;3.30;;;;;;;;;;6152581;23;20043;-42
2023/01/19 04:37:47;;;;;;;9.43;3.10;;;;;;;;;;6154978;23;20021;-43
2023/01/19 04:40:15;;;;;;;10.07;3.20;;;;;;;;;;6157866;23;20013;-41
2023/01/19 04:42:43;;;;;;;12.57;3.13;;;;;;;;;;6147253;23;20695;-41
2023/01/19 04:45:12;;;;;;;12.88;4.10;;;;;;;;;;6140010;23;20017;-45
2023/01/19 04:47:44;;;;;;;11.60;3.65;;;;;;;;;;6164907;23;20518;-43
2023/01/19 04:50:14;;;;;;;9.93;3.58;;;;;;;;;;6142337;23;20469;-43
2023/01/19 04:52:41;;;;;;;12.53;3.60;;;;;;;;;;6160981;23;20025;-41
2023/01/19 04:55:09;;;;;;;12.50;4.55;;;;;;;;;;6146420;23;20502;-43
2023/01/19 04:57:37;;;;;;;12.10;4.15;;;;;;;;;;6140586;23;20017;-43
2023/01/19 05:00:06;;;;;;;13.18;4.32;;;;;;;;;;6152086;23;20088;-41
2023/01/19 05:02:36;;;;;;;10.77;3.95;;;;;;;;;;6162451;23;20044;-42
2023/01/19 05:05:06;;;;;;;14.10;4.00;;;;;;;;;;6150799;23;20456;-41
2023/01/19 05:07:35;;;;;;;11.48;4.43;;;;;;;;;;6144413;23;20067;-41
2023/01/19 05:10:03;;;;;;;11.18;3.97;;;;;;;;;;6157276;23;20071;-42
2023/01/19 05:12:30;;;;;;;13.70;4.32;;;;;;;;;;6147210;23;20055;-42
2023/01/19 05:14:58;;;;;;;11.82;4.30;;;;;;;;;;6158488;23;20013;-41
2023/01/19 05:17:25;;;;;;;9.57;4.27;;;;;;;;;;6148504;23;20032;-42
2023/01/19 05:19:53;;;;;;;11.77;4.05;;;;;;;;;;6152162;23;20499;-44
2023/01/19 05:22:21;;;;;;;12.10;4.40;;;;;;;;;;6150480;23;20037;-41
2023/01/19 05:24:50;;;;;;;12.40;4.65;;;;;;;;;;6150184;23;20017;-41
2023/01/19 05:27:18;;;;;;;13.13;4.15;;;;;;;;;;6160707;23;20040;-44
2023/01/19 05:29:45;;;;;;;13.17;4.03;;;;;;;;;;6147889;23;20067;-44
2023/01/19 05:32:13;;;;;;;11.90;3.83;;;;;;;;;;6152106;23;20013;-42
2023/01/19 05:34:41;;;;;;;10.88;4.25;;;;;;;;;;6153092;23;20068;-41
2023/01/19 05:37:08;;;;;;;14.93;4.90;;;;;;;;;;6151188;23;20068;-44
2023/01/19 05:39:37;;;;;;;11.57;4.25;;;;;;;;;;6155568;23;20032;-43
2023/01/19 05:42:07;;;;;;;15.03;4.87;;;;;;;;;;6153062;23;20023;-42
2023/01/19 05:44:35;;;;;;;11.43;4.32;;;;;;;;;;6149458;23;20021;-41
2023/01/19 05:47:03;;;;;;;12.32;4.75;;;;;;;;;;6158287;23;20024;-42
2023/01/19 05:49:31;;;;;;;17.65;4.78;;;;;;;;;;6149445;23;20032;-43
2023/01/19 05:51:58;;;;;;;11.68;4.55;;;;;;;;;;6153252;23;20444;-41
2023/01/19 05:54:26;;;;;;;11.27;4.03;;;;;;;;;;6147152;23;20017;-41
2023/01/19 05:56:55;;;;;;;13.35;5.15;;;;;;;;;;6162303;23;20075;-41
2023/01/19 05:59:24;;;;;;;13.40;4.82;;;;;;;;;;6146146;23;20388;-41
2023/01/19 06:01:52;;;;;;;13.98;4.90;;;;;;;;;;6161680;23;20021;-42
2023/01/19 06:04:20;;;;;;;15.18;6.07;;;;;;;;;;6149435;23;20433;-42
2023/01/19 06:06:48;;;;;;;14.43;5.20;;;;;;;;;;6147785;23;20520;-42
2023/01/19 06:09:17;;;;;;;13.63;4.75;;;;;;;;;;6149843;23;20024;-43
2023/01/19 06:11:45;;;;;;;15.25;5.10;;;;;;;;;;6157192;23;20014;-41
2023/01/19 06:14:12;;;;;;;12.80;5.15;;;;;;;;;;6149610;23;20025;-43
2023/01/19 06:16:43;;;;;;;15.05;6.10;;;;;;;;;;6157251;23;20017;-42
2023/01/19 06:19:12;;;;;;;14.67;5.07;;;;;;;;;;6152080;23;20081;-42
2023/01/19 06:21:40;;;;;;;14.70;5.80;;;;;;;;;;6145757;23;20448;-43
2023/01/19 06:24:07;;;;;;;13.95;4.93;;;;;;;;;;6159257;23;20013;-42
2023/01/19 06:26:36;;;;;;;15.15;5.20;;;;;;;;;;6145254;23;20460;-41
2023/01/19 06:29:03;;;;;;;12.15;4.43;;;;;;;;;;6156771;23;20013;-42
2023/01/19 06:31:31;;;;;;;15.70;5.17;;;;;;;;;;6146542;23;20021;-43
2023/01/19 06:34:00;;;;;;;16.42;4.72;;;;;;;;;;6160543;23;20369;-43
2023/01/19 06:36:28;;;;;;;16.63;5.10;;;;;;;;;;6145624;23;20373;-42
2023/01/19 06:38:56;;;;;;;14.77;4.85;;;;;;;;;;6158424;23;20031;-41
2023/01/19 06:41:24;;;;;;;11.90;4.85;;;;;;;;;;6142405;23;20302;-41
2023/01/19 06:43:51;;;;;;;14.97;4.83;;;;;;;;;;6150858;23;20095;-44
2023/01/19 06:46:19;;;;;;;13.90;5.80;;;;;;;;;;6152880;23;20388;-42
2023/01/19 06:48:47;;;;;;;13.20;4.88;;;;;;;;;;6155106;23;20079;-42
2023/01/19 06:51:16;;;;;;;12.85;5.03;;;;;;;;;;6145678;23;20024;-43
2023/01/19 06:53:44;;;;;;;16.50;5.28;;;;;;;;;;6164666;23;20032;-41
2023/01/19 06:56:11;;;;;;;11.20;4.33;;;;;;;;;;6135056;23;20021;-44
2023/01/19 06:58:41;;;;;;;15.18;4.50;;;;;;;;;;6153751;23;20023;-42
2023/01/19 07:01:09;;;;;;;15.88;5.55;;;;;;;;;;6139697;23;20024;-41
2023/01/19 07:03:38;;;;;;;13.65;5.00;;;;;;;;;;6156359;23;20021;-42
2023/01/19 07:06:07;;;;;;;16.23;5.38;;;;;;;;;;6152253;23;20626;-42
2023/01/19 07:08:37;;;;;;;13.77;5.00;;;;;;;;;;6158294;23;20063;-43
2023/01/19 07:11:05;;;;;;;14.77;5.85;;;;;;;;;;6148734;23;20096;-41
2023/01/19 07:13:54;;;;;;;13.73;5.22;;;;;;;;;;6150664;23;20021;-42
2023/01/19 07:16:23;;;;;;;17.45;5.60;;;;;;;;;;6157628;23;20021;-43
2023/01/19 07:18:51;;;;;;;13.52;5.60;;;;;;;;;;6149669;23;20071;-43
2023/01/19 07:21:19;;;;;;;15.80;5.90;;;;;;;;;;6144833;23;20013;-43
2023/01/19 07:23:49;;;;;;;13.95;5.38;;;;;;;;;;6143553;23;20468;-42
2023/01/19 07:26:18;;;;;;;15.20;5.93;;;;;;;;;;6160328;23;20017;-42
2023/01/19 07:28:46;;;;;;;15.15;5.75;;;;;;;;;;6149820;23;21001;-42
2023/01/19 07:31:15;;;;;;;13.25;5.43;;;;;;;;;;6154899;23;20009;-41
2023/01/19 07:33:43;;;;;;;13.07;5.13;;;;;;;;;;6152419;23;20044;-44
2023/01/19 07:36:11;;;;;;;19.83;6.95;;;;;;;;;;6161170;23;20057;-41
2023/01/19 07:38:57;;;;;;;21.02;8.60;;;;;;;;;;6154403;23;20025;-44
2023/01/19 07:41:25;;;;;;;22.83;8.90;;;;;;;;;;6146880;23;20013;-43
2023/01/19 07:43:53;;;;;;;18.75;7.93;;;;;;;;;;6153110;23;20416;-43
2023/01/19 07:46:20;;;;;;;15.57;5.43;;;;;;;;;;6149713;23;20460;-41
2023/01/19 07:48:49;;;;;;;19.35;7.18;;;;;;;;;;6152257;23;20391;-43
2023/01/19 07:51:17;;;;;;;15.82;6.28;;;;;;;;;;6146451;23;20540;-41
2023/01/19 07:53:45;;;;;;;13.55;6.15;;;;;;;;;;6166313;23;20013;-41
2023/01/19 07:56:26;;;;;;;13.80;5.65;;;;;;;;;;6158209;23;20104;-42
2023/01/19 07:58:54;;;;;;;14.67;5.73;;;;;;;;;;6160497;23;20017;-42
2023/01/19 08:01:22;;;;;;;14.43;5.00;;;;;;;;;;6145254;23;20055;-41
2023/01/19 08:03:52;;;;;;;13.45;5.78;;;;;;;;;;6153433;23;20139;-41
2023/01/19 08:06:21;;;;;;;17.67;5.53;;;;;;;;;;6158288;23;20041;-41
2023/01/19 08:08:49;;;;;;;12.38;4.78;;;;;;;;;;6146871;23;20449;-41
2023/01/19 08:11:16;;;;;;;10.63;4.20;;;;;;;;;;6163132;23;20512;-43
2023/01/19 08:13:45;;;;;;;13.38;3.78;;;;;;;;;;6141173;23;20021;-42
2023/01/19 08:16:13;;;;;;;11.95;4.10;;;;;;;;;;6159999;23;20300;-41
2023/01/19 08:18:41;;;;;;;11.35;3.92;;;;;;;;;;6148092;23;20663;-42
2023/01/19 08:21:09;;;;;;;10.88;3.72;;;;;;;;;;6150558;23;20372;-42
2023/01/19 08:23:36;;;;;;;10.90;4.07;;;;;;;;;;6158790;23;20021;-41
2023/01/19 08:26:17;;;;;;;15.02;4.60;;;;;;;;;;6147986;23;20013;-44
2023/01/19 08:28:46;;;;;;;13.48;4.70;;;;;;;;;;6148654;23;20448;-41
2023/01/19 08:31:17;;;;;;;15.40;4.25;;;;;;;;;;6158390;23;20052;-41
2023/01/19 08:33:50;;;;;;;11.75;4.22;;;;;;;;;;6153733;23;20013;-43
2023/01/19 08:36:18;;;;;;;11.00;3.63;;;;;;;;;;6157151;23;20017;-42
2023/01/19 08:38:46;;;;;;;11.68;3.85;;;;;;;;;;6153522;23;20041;-41
2023/01/19 08:41:15;;;;;;;11.10;3.53;;;;;;;;;;6155237;23;20028;-41
2023/01/19 08:43:43;;;;;;;9.85;3.72;;;;;;;;;;6153971;23;20031;-42
2023/01/19 08:46:15;;;;;;;14.38;4.22;;;;;;;;;;6148972;23;20499;-46
2023/01/19 08:48:46;;;;;;;13.17;3.70;;;;;;;;;;6157299;23;20017;-41
2023/01/19 08:51:15;;;;;;;11.90;3.88;;;;;;;;;;6148460;23;20017;-42
2023/01/19 08:53:43;;;;;;;12.65;3.97;;;;;;;;;;6162144;23;20024;-41
2023/01/19 08:56:12;;;;;;;12.45;4.40;;;;;;;;;;6142840;23;20456;-41
2023/01/19 08:58:40;;;;;;;14.90;4.72;;;;;;;;;;6154399;23;20021;-42
2023/01/19 09:01:10;;;;;;;14.67;4.37;;;;;;;;;;6142605;23;20027;-42
2023/01/19 09:03:39;;;;;;;12.40;4.57;;;;;;;;;;6153733;23;20425;-42
2023/01/19 09:06:07;;;;;;;13.07;3.95;;;;;;;;;;6146122;23;20017;-41
2023/01/19 09:08:34;;;;;;;11.02;3.85;;;;;;;;;;6152684;23;20536;-42
2023/01/19 09:11:04;;;;;;;9.68;3.78;;;;;;;;;;6145497;23;20039;-41
2023/01/19 09:13:32;;;;;;;14.20;3.90;;;;;;;;;;6151514;23;20051;-41
2023/01/19 09:16:02;;;;;;;10.02;3.85;;;;;;;;;;6145893;23;20225;-43
2023/01/19 09:18:30;;;;;;;13.00;3.47;;;;;;;;;;6157100;23;20507;-42
2023/01/19 09:20:59;;;;;;;13.45;3.70;;;;;;;;;;6146006;23;20522;-41
2023/01/19 09:23:27;;;;;;;10.60;4.03;;;;;;;;;;6124397;23;20013;-41
2023/01/19 09:25:57;;;;;;;12.30;3.77;;;;;;;;;;6114916;23;20464;-41
2023/01/19 09:28:25;;;;;;;10.40;3.55;;;;;;;;;;6138931;23;20324;-41
2023/01/19 09:30:52;;;;;;;11.05;3.92;;;;;;;;;;6141779;23;20013;-42
2023/01/19 09:33:21;;;;;;;12.98;4.25;;;;;;;;;;6126634;23;20016;-41
2023/01/19 09:35:50;;;;;;;12.05;3.75;;;;;;;;;;6146907;23;20352;-41
2023/01/19 09:38:21;;;;;;;11.07;3.90;;;;;;;;;;6130005;23;20096;-41
2023/01/19 09:40:50;;;;;;;14.38;5.25;;;;;;;;;;6145774;23;20345;-41
2023/01/19 09:43:21;;;;;;;14.18;5.28;;;;;;;;;;6129350;23;20025;-43
2023/01/19 09:45:52;;;;;;;17.80;5.55;;;;;;;;;;6141693;23;20100;-41
2023/01/19 09:48:26;;;;;;;19.27;6.55;;;;;;;;;;6136741;23;20688;-41
2023/01/19 09:50:55;;;;;;;17.93;6.17;;;;;;;;;;6132397;23;20253;-41
2023/01/19 09:53:30;;;;;;;21.45;6.78;;;;;;;;;;6126036;23;20017;-41
2023/01/19 09:55:57;;;;;;;19.48;6.40;;;;;;;;;;6134583;23;20088;-42
2023/01/19 09:58:25;;;;;;;18.70;6.25;;;;;;;;;;6130268;23;20080;-41
2023/01/19 10:00:58;;;;;;;16.23;5.40;;;;;;;;;;6142893;23;20021;-42
2023/01/19 10:03:26;;;;;;;19.40;6.13;;;;;;;;;;6130464;23;20076;-43
2023/01/19 10:05:56;;;;;;;18.85;6.07;;;;;;;;;;6138685;23;20013;-41
2023/01/19 10:08:26;;;;;;;13.80;5.07;;;;;;;;;;6133938;23;20029;-41
2023/01/19 10:10:57;;;;;;;18.52;6.22;;;;;;;;;;6141318;23;20430;-41
2023/01/19 10:13:28;;;;;;;17.92;5.45;;;;;;;;;;6132501;23;20017;-41
2023/01/19 10:16:01;;;;;;;13.73;5.17;;;;;;;;;;6128134;23;20095;-42
2023/01/19 10:18:37;;;;;;;14.68;5.07;;;;;;;;;;6135329;23;20024;-42
2023/01/19 10:21:10;;;;;;;15.02;4.78;;;;;;;;;;6135577;23;20554;-41
2023/01/19 10:23:40;;;;;;;12.98;4.78;;;;;;;;;;6131902;23;20017;-42
2023/01/19 10:26:11;;;;;;;15.40;5.25;;;;;;;;;;6133796;23;20345;-42
2023/01/19 10:28:40;;;;;;;15.17;4.47;;;;;;;;;;6139367;23;20013;-41
2023/01/19 10:31:08;;;;;;;12.45;4.53;;;;;;;;;;6140070;23;20494;-42
2023/01/19 10:33:36;;;;;;;14.00;4.65;;;;;;;;;;6118210;23;20422;-43
2023/01/19 10:36:05;;;;;;;11.77;4.05;;;;;;;;;;6144787;23;20013;-43
2023/01/19 10:38:33;;;;;;;14.35;5.88;;;;;;;;;;6129285;23;20071;-42
2023/01/19 10:41:03;;;;;;;13.80;4.53;;;;;;;;;;6143815;23;20456;-45
2023/01/19 10:43:40;;;;;;;13.48;5.35;;;;;;;;;;6140307;23;20487;-44
2023/01/19 10:46:17;;;;;;;15.18;4.57;;;;;;;;;;6147777;23;20017;-41
2023/01/19 10:48:47;;;;;;;15.70;5.07;;;;;;;;;;6160863;23;20429;-42
2023/01/19 10:51:16;;;;;;;15.48;5.10;;;;;;;;;;6148151;23;20036;-43
2023/01/19 10:53:55;;;;;;;12.17;4.67;;;;;;;;;;6163651;23;20516;-42
2023/01/19 10:56:25;;;;;;;11.45;4.75;;;;;;;;;;6156339;23;20080;-43
2023/01/19 10:58:54;;;;;;;13.00;4.43;;;;;;;;;;6155453;23;20100;-41
2023/01/19 11:01:22;;;;;;;13.52;4.60;;;;;;;;;;6150088;23;20519;-42
2023/01/19 11:03:52;;;;;;;12.50;4.18;;;;;;;;;;6150210;23;20685;-43
2023/01/19 11:06:26;;;;;;;9.93;2.83;;;;;;;;;;6159213;23;20028;-43
2023/01/19 11:09:10;;;;;;;10.65;3.75;;;;;;;;;;6142724;23;20071;-42
2023/01/19 11:11:42;;;;;;;13.60;3.78;;;;;;;;;;6156585;23;20013;-45
2023/01/19 11:14:12;;;;;;;13.98;3.80;;;;;;;;;;6149873;23;20029;-43
2023/01/19 11:16:40;;;;;;;9.43;2.85;;;;;;;;;;6151035;23;20049;-44
2023/01/19 11:19:16;;;;;;;13.43;2.97;;;;;;;;;;6154151;23;20024;-43
2023/01/19 11:21:44;;;;;;;9.32;2.78;;;;;;;;;;6150584;23;20109;-42
2023/01/19 11:24:13;;;;;;;11.60;3.15;;;;;;;;;;6156911;23;20331;-42
2023/01/19 11:26:42;;;;;;;7.82;2.25;;;;;;;;;;6149708;23;20040;-41
2023/01/19 11:29:16;;;;;;;10.35;2.40;;;;;;;;;;6158615;23;20276;-45
2023/01/19 11:31:44;;;;;;;11.30;3.10;;;;;;;;;;6150443;23;20024;-43
2023/01/19 11:34:32;;;;;;;10.35;2.70;;;;;;;;;;6160695;23;20200;-43
2023/01/19 11:37:01;;;;;;;11.52;3.15;;;;;;;;;;6153558;23;20067;-42
2023/01/19 11:39:30;;;;;;;9.73;2.92;;;;;;;;;;6154469;23;20096;-42
2023/01/19 11:41:58;;;;;;;9.00;3.00;;;;;;;;;;6157249;23;20024;-41
2023/01/19 11:44:31;;;;;;;8.30;2.43;;;;;;;;;;6158205;23;20067;-41
2023/01/19 11:46:59;;;;;;;9.02;2.95;;;;;;;;;;6157726;23;20017;-41
2023/01/19 11:49:31;;;;;;;7.50;1.73;;;;;;;;;;6143033;23;20021;-42
2023/01/19 11:52:02;;;;;;;13.52;2.28;;;;;;;;;;6163849;23;20452;-41
2023/01/19 11:54:31;;;;;;;9.13;1.92;;;;;;;;;;6148336;23;20431;-42
2023/01/19 11:57:00;;;;;;;10.53;1.90;;;;;;;;;;6161054;23;20036;-42
2023/01/19 11:59:29;;;;;;;7.15;1.73;;;;;;;;;;6154223;23;20356;-43
2023/01/19 12:01:58;;;;;;;9.05;1.90;;;;;;;;;;6157992;23;20052;-42
2023/01/19 12:04:29;;;;;;;9.80;2.00;;;;;;;;;;6143392;23;20084;-43
2023/01/19 12:06:58;;;;;;;10.85;1.92;;;;;;;;;;6149686;23;20025;-42
2023/01/19 12:09:28;;;;;;;7.53;1.53;;;;;;;;;;6153548;23;20020;-41
2023/01/19 12:11:57;;;;;;;8.82;1.67;;;;;;;;;;6161275;23;20020;-43
2023/01/19 12:14:30;;;;;;;9.93;1.50;;;;;;;;;;6134030;23;20087;-41
2023/01/19 12:17:00;;;;;;;11.25;1.45;;;;;;;;;;6153760;23;20048;-42
2023/01/19 12:19:35;;;;;;;8.27;1.30;;;;;;;;;;6155717;23;20020;-42
2023/01/19 12:22:04;;;;;;;6.87;1.23;;;;;;;;;;6148575;23;20017;-42
2023/01/19 12:24:34;;;;;;;9.10;1.40;;;;;;;;;;6144626;23;20452;-44
2023/01/19 12:27:07;;;;;;;13.43;1.38;;;;;;;;;;6150608;23;20370;-41
2023/01/19 12:29:35;;;;;;;11.27;1.42;;;;;;;;;;6153709;23;20562;-46
2023/01/19 12:32:18;;;;;;;6.88;1.23;;;;;;;;;;6149794;23;20083;-42
2023/01/19 12:34:47;;;;;;;6.73;1.10;;;;;;;;;;6147791;23;20013;-42
2023/01/19 12:37:35;;;;;;;6.45;1.13;;;;;;;;;;6157280;23;20024;-41
2023/01/19 12:40:05;;;;;;;7.22;1.20;;;;;;;;;;6139265;23;20060;-41
2023/01/19 12:42:33;;;;;;;5.03;0.98;;;;;;;;;;6151930;23;20049;-41
2023/01/19 12:45:08;;;;;;;7.85;1.52;;;;;;;;;;6142467;23;20071;-41
2023/01/19 12:47:37;;;;;;;9.53;1.67;;;;;;;;;;6157467;23;20284;-41
2023/01/19 12:50:07;;;;;;;7.43;1.30;;;;;;;;;;6144533;23;20049;-41
2023/01/19 12:52:39;;;;;;;10.02;1.25;;;;;;;;;;6149148;23;20021;-42
2023/01/19 12:55:17;;;;;;;8.07;0.90;;;;;;;;;;6148070;23;20514;-41
2023/01/19 12:57:49;;;;;;;6.57;0.90;;;;;;;;;;6147018;23;20759;-41
2023/01/19 13:00:28;;;;;;;6.97;1.57;;;;;;;;;;6150690;23;20044;-41
2023/01/19 13:02:58;;;;;;;8.15;1.10;;;;;;;;;;6146903;23;20021;-41
2023/01/19 13:05:49;;;;;;;10.77;1.63;;;;;;;;;;6156632;23;20025;-41
2023/01/19 13:08:23;;;;;;;5.85;1.13;;;;;;;;;;6156434;23;20021;-42
2023/01/19 13:10:55;;;;;;;7.60;1.55;;;;;;;;;;6136100;23;20388;-41
2023/01/19 13:13:25;;;;;;;7.60;1.30;;;;;;;;;;6141172;23;20017;-42
2023/01/19 13:15:54;;;;;;;8.30;1.23;;;;;;;;;;6141318;23;20017;-42
2023/01/19 13:18:25;;;;;;;6.72;0.90;;;;;;;;;;6147821;23;20035;-43
2023/01/19 13:20:54;;;;;;;9.38;0.60;;;;;;;;;;6154793;23;20041;-41
2023/01/19 13:23:23;;;;;;;4.82;0.90;;;;;;;;;;6152172;23;20028;-42
2023/01/19 13:25:53;;;;;;;10.03;0.57;;;;;;;;;;6157273;23;20021;-42
2023/01/19 13:28:25;;;;;;;6.97;0.60;;;;;;;;;;6148512;23;20017;-42
2023/01/19 13:30:55;;;;;;;5.88;0.70;;;;;;;;;;6152659;23;20040;-42
2023/01/19 13:33:26;;;;;;;4.50;0.60;;;;;;;;;;6140446;23;20021;-41
2023/01/19 13:35:57;;;;;;;4.15;0.73;;;;;;;;;;6149272;23;20364;-45
2023/01/19 13:38:26;;;;;;;5.33;0.70;;;;;;;;;;6147188;23;20037;-42
2023/01/19 13:40:54;;;;;;;6.18;0.80;;;;;;;;;;6147677;23;20472;-42
2023/01/19 13:43:25;;;;;;;5.25;1.00;;;;;;;;;;6144634;23;20025;-43
2023/01/19 13:45:53;;;;;;;4.65;0.63;;;;;;;;;;6146477;23;20013;-42
2023/01/19 13:48:22;;;;;;;3.55;0.60;;;;;;;;;;6140411;23;20059;-42
2023/01/19 13:50:59;;;;;;;4.53;0.40;;;;;;;;;;6143507;23;20112;-42
2023/01/19 13:53:28;;;;;;;5.20;0.57;;;;;;;;;;6160550;23;20299;-43
2023/01/19 13:56:08;;;;;;;6.72;0.40;;;;;;;;;;6149902;23;20027;-42
2023/01/19 13:58:36;;;;;;;5.07;0.45;;;;;;;;;;6156241;23;20013;-42
2023/01/19 14:01:04;;;;;;;3.67;0.30;;;;;;;;;;6144044;23;20017;-42
2023/01/19 14:03:32;;;;;;;5.80;0.43;;;;;;;;;;6158586;23;20116;-42
2023/01/19 14:06:02;;;;;;;4.65;0.40;;;;;;;;;;6150331;23;20020;-42
2023/01/19 14:08:31;;;;;;;4.15;0.38;;;;;;;;;;6155932;23;20352;-41
2023/01/19 14:11:01;;;;;;;3.08;0.40;;;;;;;;;;6149026;23;20310;-41
2023/01/19 14:13:30;;;;;;;5.45;0.60;;;;;;;;;;6158501;23;20017;-41
2023/01/19 14:15:59;;;;;;;7.63;0.40;;;;;;;;;;6143869;23;20487;-41
2023/01/19 14:18:30;;;;;;;6.47;0.55;;;;;;;;;;6118924;23;20677;-40
2023/01/19 14:21:00;;;;;;;5.20;0.40;;;;;;;;;;6131575;23;20021;-41
2023/01/19 14:23:40;;;;;;;6.95;0.40;;;;;;;;;;6146591;23;20079;-42
2023/01/19 14:26:22;;;;;;;6.65;0.40;;;;;;;;;;6155958;23;20017;-42
2023/01/19 14:28:51;;;;;;;4.43;0.50;;;;;;;;;;6158291;23;20087;-42
2023/01/19 14:31:20;;;;;;;6.68;0.30;;;;;;;;;;6146461;23;20021;-40
2023/01/19 14:33:48;;;;;;;4.22;0.32;;;;;;;;;;6155534;23;20055;-41
2023/01/19 14:36:27;;;;;;;6.72;0.50;;;;;;;;;;6157151;23;20108;-41
2023/01/19 14:38:58;;;;;;;5.63;0.50;;;;;;;;;;6155803;23;20071;-42
2023/01/19 14:41:28;;;;;;;5.50;0.57;;;;;;;;;;6154636;23;20088;-41
2023/01/19 14:43:57;;;;;;;3.17;0.43;;;;;;;;;;6154656;23;20022;-43
2023/01/19 14:46:25;;;;;;;4.30;0.38;;;;;;;;;;6152911;23;20316;-42
2023/01/19 14:49:02;;;;;;;4.47;0.47;;;;;;;;;;6158673;23;20024;-42
2023/01/19 14:51:30;;;;;;;3.55;0.40;;;;;;;;;;6147479;23;20040;-41
2023/01/19 14:54:01;;;;;;;7.27;0.50;;;;;;;;;;6150092;23;20059;-41
2023/01/19 14:56:30;;;;;;;4.15;0.40;;;;;;;;;;6150204;23;20479;-41
2023/01/19 14:58:58;;;;;;;7.72;0.38;;;;;;;;;;6138116;23;20898;-43
2023/01/19 15:01:29;;;;;;;6.05;0.60;;;;;;;;;;6140549;23;20013;-42